Back to Top

Language: 

My Weather Underground Personal Weather Station Historical Data with Graphs...

Delerius Weather Station Historical Data
Daily Summary for October 8, 2017 Units:  Metric    English   Both
« Previous Day
Next Day »
Daily Weekly Monthly Yearly Custom
  High: Low: Average:
Temperature: 17.8 °C 9.2 °C 12.5 °C
Dew Point: 11.5 °C 8.1 °C 9.9 °C
Humidity: 95 % 63 % 85 %
Wind Speed: 16.1 km/h 0 km/h 8.4 km/h
Wind Gust: 29 km/h - -
Wind:- - WNW
Pressure: 1020.2 hPa 1015.8 hPa -
Precipitation: 0 mm    
Historical Graphs
 
 
Tabular Data for October 8, 2017
Time Temperature Dew Point Pressure Wind Wind Speed Wind Gust Humidity Rainfall Rate (Hourly) solar Conditions
00:00 11.1 °C 9.7 °C 1015.8 hPa WNW 11.3 km/h 20.9 km/h 91 % 0 mm 0 W/m2
00:05 11.1 °C 9.7 °C 1015.8 hPa West 9.7 km/h 19.3 km/h 91 % 0 mm 0 W/m2
00:10 11 °C 9.6 °C 1015.8 hPa West 8 km/h 16.1 km/h 91 % 0 mm 0 W/m2
00:15 10.9 °C 9.5 °C 1015.8 hPa West 9.7 km/h 16.1 km/h 91 % 0 mm 0 W/m2
00:20 10.9 °C 9.5 °C 1015.8 hPa WNW 11.3 km/h 19.3 km/h 91 % 0 mm 0 W/m2
00:25 10.9 °C 9.5 °C 1015.8 hPa WNW 11.3 km/h 19.3 km/h 91 % 0 mm 0 W/m2
00:30 10.8 °C 9.4 °C 1015.8 hPa WNW 11.3 km/h 16.1 km/h 91 % 0 mm 0 W/m2
00:35 10.8 °C 9.4 °C 1015.8 hPa WNW 9.7 km/h 16.1 km/h 91 % 0 mm 0 W/m2
00:40 10.7 °C 9.3 °C 1015.8 hPa West 9.7 km/h 17.7 km/h 91 % 0 mm 0 W/m2
00:46 10.7 °C 9.3 °C 1015.8 hPa West 11.3 km/h 17.7 km/h 91 % 0 mm 0 W/m2
00:51 10.6 °C 9.2 °C 1015.8 hPa WNW 11.3 km/h 19.3 km/h 91 % 0 mm 0 W/m2
00:56 10.6 °C 9.3 °C 1015.8 hPa WNW 12.9 km/h 19.3 km/h 92 % 0 mm 0 W/m2
01:01 10.6 °C 9.3 °C 1015.8 hPa WNW 12.9 km/h 19.3 km/h 92 % 0 mm 0 W/m2
01:06 10.7 °C 9.4 °C 1015.8 hPa WNW 12.9 km/h 22.5 km/h 92 % 0 mm 0 W/m2
01:11 10.7 °C 9.4 °C 1016.1 hPa WNW 12.9 km/h 22.5 km/h 92 % 0 mm 0 W/m2
01:21 10.7 °C 9.4 °C 1016.1 hPa WNW 12.9 km/h 19.3 km/h 92 % 0 mm 0 W/m2
01:26 10.7 °C 9.4 °C 1015.8 hPa WNW 12.9 km/h 19.3 km/h 92 % 0 mm 0 W/m2
01:31 10.8 °C 9.6 °C 1015.8 hPa WNW 12.9 km/h 20.9 km/h 92 % 0 mm 0 W/m2
01:36 10.8 °C 9.6 °C 1016.1 hPa WNW 11.3 km/h 20.9 km/h 92 % 0 mm 0 W/m2
01:41 10.8 °C 9.6 °C 1016.1 hPa WNW 11.3 km/h 17.7 km/h 92 % 0 mm 0 W/m2
01:46 10.8 °C 9.6 °C 1016.1 hPa WNW 11.3 km/h 19.3 km/h 92 % 0 mm 0 W/m2
01:51 10.8 °C 9.6 °C 1016.1 hPa WNW 12.9 km/h 19.3 km/h 92 % 0 mm 0 W/m2
01:56 10.8 °C 9.6 °C 1016.1 hPa WNW 12.9 km/h 20.9 km/h 92 % 0 mm 0 W/m2
02:01 10.8 °C 9.6 °C 1016.1 hPa WNW 14.5 km/h 20.9 km/h 92 % 0 mm 0 W/m2
02:06 10.9 °C 9.7 °C 1016.1 hPa WNW 14.5 km/h 20.9 km/h 92 % 0 mm 0 W/m2
02:11 10.9 °C 9.7 °C 1016.1 hPa WNW 14.5 km/h 20.9 km/h 92 % 0 mm 0 W/m2
02:16 10.9 °C 9.7 °C 1016.1 hPa WNW 14.5 km/h 24.1 km/h 92 % 0 mm 0 W/m2
02:21 10.9 °C 9.7 °C 1016.1 hPa WNW 16.1 km/h 24.1 km/h 92 % 0 mm 0 W/m2
02:31 11.1 °C 9.7 °C 1016.1 hPa WNW 16.1 km/h 29 km/h 91 % 0 mm 0 W/m2
02:36 11.1 °C 9.7 °C 1016.1 hPa WNW 16.1 km/h 29 km/h 91 % 0 mm 0 W/m2
02:41 11 °C 9.6 °C 1016.1 hPa WNW 14.5 km/h 25.7 km/h 91 % 0 mm 0 W/m2
02:46 10.9 °C 9.5 °C 1016.1 hPa WNW 12.9 km/h 22.5 km/h 91 % 0 mm 0 W/m2
02:56 10.9 °C 9.5 °C 1016.1 hPa WNW 12.9 km/h 20.9 km/h 91 % 0 mm 0 W/m2
03:01 10.8 °C 9.4 °C 1016.1 hPa WNW 12.9 km/h 19.3 km/h 91 % 0 mm 0 W/m2
03:06 10.8 °C 9.4 °C 1016.1 hPa WNW 12.9 km/h 20.9 km/h 91 % 0 mm 0 W/m2
03:11 10.7 °C 9.3 °C 1016.1 hPa West 11.3 km/h 20.9 km/h 91 % 0 mm 0 W/m2
03:16 10.7 °C 9.3 °C 1016.5 hPa West 9.7 km/h 17.7 km/h 91 % 0 mm 0 W/m2
03:21 10.6 °C 9.2 °C 1016.5 hPa West 9.7 km/h 17.7 km/h 91 % 0 mm 0 W/m2
03:26 10.5 °C 9.1 °C 1016.1 hPa West 9.7 km/h 16.1 km/h 91 % 0 mm 0 W/m2
03:31 10.4 °C 9.2 °C 1016.1 hPa West 9.7 km/h 17.7 km/h 92 % 0 mm 0 W/m2
03:36 10.4 °C 9 °C 1016.1 hPa WNW 9.7 km/h 17.7 km/h 91 % 0 mm 0 W/m2
03:41 10.4 °C 9.2 °C 1016.5 hPa WNW 9.7 km/h 16.1 km/h 92 % 0 mm 0 W/m2
03:46 10.4 °C 9.2 °C 1016.5 hPa WNW 9.7 km/h 17.7 km/h 92 % 0 mm 0 W/m2
03:51 10.3 °C 9.1 °C 1016.5 hPa WNW 11.3 km/h 17.7 km/h 92 % 0 mm 0 W/m2
03:56 10.3 °C 9.1 °C 1016.5 hPa WNW 11.3 km/h 17.7 km/h 92 % 0 mm 0 W/m2
04:01 10.3 °C 9.1 °C 1016.5 hPa WNW 11.3 km/h 19.3 km/h 92 % 0 mm 0 W/m2
04:06 10.4 °C 9.2 °C 1016.5 hPa WNW 12.9 km/h 20.9 km/h 92 % 0 mm 0 W/m2
04:11 10.4 °C 9.2 °C 1016.5 hPa WNW 12.9 km/h 20.9 km/h 92 % 0 mm 0 W/m2
04:16 10.4 °C 9.2 °C 1016.5 hPa WNW 12.9 km/h 22.5 km/h 92 % 0 mm 0 W/m2
04:21 10.4 °C 9.2 °C 1016.5 hPa WNW 12.9 km/h 20.9 km/h 92 % 0 mm 0 W/m2
04:24 10.4 °C 9.2 °C 1016.5 hPa WNW 12.9 km/h 20.9 km/h 92 % 0 mm 0 W/m2
04:29 10.4 °C 9.2 °C 1016.5 hPa WNW 12.9 km/h 24.1 km/h 92 % 0 mm 0 W/m2
04:34 10.4 °C 9 °C 1016.5 hPa WNW 14.5 km/h 24.1 km/h 91 % 0 mm 0 W/m2
04:39 10.4 °C 9 °C 1016.8 hPa WNW 12.9 km/h 24.1 km/h 91 % 0 mm 0 W/m2
04:44 10.4 °C 9 °C 1016.8 hPa WNW 12.9 km/h 24.1 km/h 91 % 0 mm 0 W/m2
04:49 10.4 °C 9.2 °C 1016.8 hPa WNW 11.3 km/h 19.3 km/h 92 % 0 mm 0 W/m2
04:54 10.4 °C 9.2 °C 1016.8 hPa WNW 12.9 km/h 19.3 km/h 92 % 0 mm 0 W/m2
04:59 10.5 °C 9.3 °C 1016.8 hPa WNW 12.9 km/h 22.5 km/h 92 % 0 mm 0 W/m2
05:04 10.6 °C 9.3 °C 1016.8 hPa WNW 11.3 km/h 22.5 km/h 92 % 0 mm 0 W/m2
05:09 10.7 °C 9.4 °C 1016.8 hPa WNW 11.3 km/h 24.1 km/h 92 % 0 mm 0 W/m2
05:14 10.7 °C 9.4 °C 1016.8 hPa WNW 12.9 km/h 24.1 km/h 92 % 0 mm 0 W/m2
05:29 10.9 °C 9.5 °C 1017.2 hPa WNW 12.9 km/h 20.9 km/h 91 % 0 mm 0 W/m2
05:34 10.9 °C 9.5 °C 1017.2 hPa WNW 12.9 km/h 22.5 km/h 91 % 0 mm 0 W/m2
05:39 11 °C 9.6 °C 1017.2 hPa WNW 12.9 km/h 22.5 km/h 91 % 0 mm 0 W/m2
05:44 11 °C 9.6 °C 1017.2 hPa WNW 12.9 km/h 22.5 km/h 91 % 0 mm 0 W/m2
05:49 11 °C 9.6 °C 1017.2 hPa WNW 11.3 km/h 22.5 km/h 91 % 0 mm 0 W/m2
05:54 11 °C 9.6 °C 1017.2 hPa WNW 9.7 km/h 16.1 km/h 91 % 0 mm 0 W/m2
05:59 10.9 °C 9.5 °C 1017.2 hPa WNW 9.7 km/h 14.5 km/h 91 % 0 mm 0 W/m2
06:04 10.9 °C 9.5 °C 1017.5 hPa WNW 9.7 km/h 16.1 km/h 91 % 0 mm 0 W/m2
06:09 10.9 °C 9.5 °C 1017.5 hPa WNW 9.7 km/h 16.1 km/h 91 % 0 mm 0 W/m2
06:14 10.8 °C 9.4 °C 1017.5 hPa WNW 9.7 km/h 16.1 km/h 91 % 0 mm 0 W/m2
06:19 10.8 °C 9.4 °C 1017.5 hPa WNW 9.7 km/h 19.3 km/h 91 % 0 mm 0 W/m2
06:24 10.8 °C 9.4 °C 1017.5 hPa WNW 11.3 km/h 19.3 km/h 91 % 0 mm 0 W/m2
06:29 10.8 °C 9.4 °C 1017.5 hPa West 9.7 km/h 17.7 km/h 91 % 0 mm 0 W/m2
06:34 10.7 °C 9.3 °C 1017.5 hPa WNW 11.3 km/h 16.1 km/h 91 % 0 mm 0 W/m2
06:39 10.7 °C 9.3 °C 1017.5 hPa WNW 11.3 km/h 16.1 km/h 91 % 0 mm 0 W/m2
06:44 10.7 °C 9.3 °C 1017.5 hPa WNW 11.3 km/h 16.1 km/h 91 % 0 mm 0 W/m2
06:49 10.7 °C 9.3 °C 1017.5 hPa WNW 11.3 km/h 16.1 km/h 91 % 0 mm 0 W/m2
06:54 10.7 °C 9.3 °C 1017.5 hPa WNW 11.3 km/h 16.1 km/h 91 % 0 mm 0 W/m2
06:59 10.7 °C 9.3 °C 1017.5 hPa WNW 9.7 km/h 16.1 km/h 91 % 0 mm 0 W/m2
07:06 10.7 °C 9.3 °C 1017.8 hPa WNW 9.7 km/h 14.5 km/h 91 % 0 mm 0 W/m2
07:08 10.7 °C 9.3 °C 1017.8 hPa WNW 9.7 km/h 14.5 km/h 91 % 0 mm 0 W/m2
07:13 10.7 °C 9.3 °C 1017.8 hPa WNW 9.7 km/h 16.1 km/h 91 % 0 mm 0 W/m2
07:18 10.7 °C 9.3 °C 1017.8 hPa WNW 11.3 km/h 17.7 km/h 91 % 0 mm 0 W/m2
07:23 10.8 °C 9.4 °C 1017.8 hPa WNW 11.3 km/h 17.7 km/h 91 % 0 mm 5 W/m2
07:28 10.8 °C 9.4 °C 1017.8 hPa WNW 11.3 km/h 17.7 km/h 91 % 0 mm 7 W/m2
07:33 10.9 °C 9.5 °C 1017.8 hPa WNW 11.3 km/h 17.7 km/h 91 % 0 mm 9 W/m2
07:38 10.9 °C 9.3 °C 1017.8 hPa WNW 11.3 km/h 17.7 km/h 90 % 0 mm 11 W/m2
07:43 11 °C 9.4 °C 1017.8 hPa WNW 11.3 km/h 16.1 km/h 90 % 0 mm 11 W/m2
07:48 11 °C 9.4 °C 1017.8 hPa WNW 9.7 km/h 16.1 km/h 90 % 0 mm 12 W/m2
07:53 11.1 °C 9.5 °C 1017.8 hPa WNW 9.7 km/h 16.1 km/h 90 % 0 mm 12 W/m2
07:58 11.1 °C 9.5 °C 1017.8 hPa WNW 9.7 km/h 16.1 km/h 90 % 0 mm 14 W/m2
08:03 11.2 °C 9.6 °C 1017.8 hPa WNW 9.7 km/h 14.5 km/h 90 % 0 mm 18 W/m2
08:08 11.2 °C 9.6 °C 1017.8 hPa WNW 8 km/h 14.5 km/h 90 % 0 mm 19 W/m2
08:13 11.2 °C 9.6 °C 1017.8 hPa WNW 8 km/h 12.9 km/h 90 % 0 mm 21 W/m2
08:18 11.2 °C 9.6 °C 1017.8 hPa West 8 km/h 12.9 km/h 90 % 0 mm 18 W/m2
08:23 11.2 °C 9.6 °C 1017.8 hPa WNW 9.7 km/h 12.9 km/h 90 % 0 mm 23 W/m2
08:28 11.3 °C 9.7 °C 1018.2 hPa WNW 9.7 km/h 12.9 km/h 90 % 0 mm 28 W/m2
08:33 11.3 °C 9.7 °C 1017.8 hPa WNW 8 km/h 12.9 km/h 90 % 0 mm 40 W/m2
08:38 11.3 °C 9.7 °C 1017.8 hPa WNW 8 km/h 12.9 km/h 90 % 0 mm 49 W/m2
08:43 11.4 °C 10 °C 1018.2 hPa WNW 8 km/h 12.9 km/h 91 % 0 mm 46 W/m2
08:48 11.4 °C 10 °C 1018.2 hPa WNW 8 km/h 12.9 km/h 91 % 0 mm 51 W/m2
08:53 11.5 °C 9.9 °C 1018.2 hPa WNW 8 km/h 12.9 km/h 90 % 0 mm 63 W/m2
08:58 11.6 °C 10 °C 1018.2 hPa WNW 8 km/h 12.9 km/h 90 % 0 mm 65 W/m2
09:03 11.7 °C 10.1 °C 1018.2 hPa WNW 8 km/h 12.9 km/h 90 % 0 mm 67 W/m2
09:08 11.8 °C 10.2 °C 1018.2 hPa WNW 8 km/h 12.9 km/h 90 % 0 mm 62 W/m2
09:13 11.8 °C 10.2 °C 1018.5 hPa WNW 8 km/h 14.5 km/h 90 % 0 mm 65 W/m2
09:18 11.9 °C 10.3 °C 1018.5 hPa WNW 8 km/h 14.5 km/h 90 % 0 mm 72 W/m2
09:23 12 °C 10.4 °C 1018.5 hPa WNW 6.4 km/h 11.3 km/h 90 % 0 mm 84 W/m2
09:28 12.1 °C 10.5 °C 1018.5 hPa WNW 6.4 km/h 11.3 km/h 90 % 0 mm 97 W/m2
09:33 12.1 °C 10.5 °C 1018.5 hPa West 6.4 km/h 11.3 km/h 90 % 0 mm 102 W/m2
09:38 12.2 °C 10.6 °C 1018.5 hPa West 4.8 km/h 9.7 km/h 90 % 0 mm 109 W/m2
09:43 12.3 °C 10.6 °C 1018.5 hPa West 3.2 km/h 9.7 km/h 89 % 0 mm 111 W/m2
09:48 12.4 °C 10.8 °C 1018.5 hPa West 1.6 km/h 8 km/h 90 % 0 mm 116 W/m2
09:53 12.6 °C 10.8 °C 1018.5 hPa West 4.8 km/h 11.3 km/h 89 % 0 mm 111 W/m2
09:58 12.7 °C 10.9 °C 1018.8 hPa West 8 km/h 16.1 km/h 89 % 0 mm 123 W/m2
10:03 12.8 °C 10.8 °C 1018.8 hPa WNW 11.3 km/h 24.1 km/h 88 % 0 mm 158 W/m2
10:08 12.8 °C 10.8 °C 1018.8 hPa WNW 14.5 km/h 25.7 km/h 88 % 0 mm 176 W/m2
10:13 12.9 °C 10.8 °C 1018.8 hPa WNW 14.5 km/h 25.7 km/h 87 % 0 mm 269 W/m2
10:18 13 °C 10.7 °C 1018.8 hPa WNW 14.5 km/h 22.5 km/h 86 % 0 mm 225 W/m2
10:23 13.2 °C 10.9 °C 1019.2 hPa WNW 11.3 km/h 22.5 km/h 86 % 0 mm 185 W/m2
10:28 13.3 °C 11 °C 1019.2 hPa WNW 9.7 km/h 20.9 km/h 86 % 0 mm 188 W/m2
10:33 13.4 °C 10.9 °C 1019.2 hPa WNW 11.3 km/h 20.9 km/h 85 % 0 mm 214 W/m2
10:38 13.6 °C 11.1 °C 1019.2 hPa NW 11.3 km/h 17.7 km/h 85 % 0 mm 227 W/m2
10:43 13.7 °C 11.1 °C 1019.2 hPa NW 11.3 km/h 20.9 km/h 84 % 0 mm 211 W/m2
10:48 13.8 °C 11.2 °C 1019.2 hPa WNW 12.9 km/h 20.9 km/h 84 % 0 mm 278 W/m2
10:53 13.9 °C 11.1 °C 1019.2 hPa WNW 12.9 km/h 20.9 km/h 83 % 0 mm 223 W/m2
10:58 14 °C 11 °C 1019.2 hPa NW 11.3 km/h 19.3 km/h 82 % 0 mm 237 W/m2
11:03 14.1 °C 11.1 °C 1019.2 hPa NW 11.3 km/h 20.9 km/h 82 % 0 mm 236 W/m2
11:08 14.2 °C 11 °C 1019.2 hPa NW 11.3 km/h 20.9 km/h 81 % 0 mm 276 W/m2
11:13 14.3 °C 11.1 °C 1019.2 hPa WNW 11.3 km/h 19.3 km/h 81 % 0 mm 227 W/m2
11:18 14.3 °C 10.9 °C 1019.2 hPa WNW 12.9 km/h 24.1 km/h 80 % 0 mm 213 W/m2
11:23 14.3 °C 10.9 °C 1019.2 hPa WNW 14.5 km/h 24.1 km/h 80 % 0 mm 232 W/m2
11:28 14.4 °C 11 °C 1019.5 hPa WNW 12.9 km/h 20.9 km/h 80 % 0 mm 271 W/m2
11:33 14.4 °C 11 °C 1019.2 hPa WNW 12.9 km/h 20.9 km/h 80 % 0 mm 265 W/m2
11:38 14.4 °C 11 °C 1019.2 hPa WNW 12.9 km/h 20.9 km/h 80 % 0 mm 255 W/m2
11:43 14.6 °C 11.2 °C 1019.5 hPa WNW 12.9 km/h 17.7 km/h 80 % 0 mm 274 W/m2
11:48 14.7 °C 11.3 °C 1019.5 hPa WNW 11.3 km/h 17.7 km/h 80 % 0 mm 258 W/m2
11:53 14.7 °C 11.1 °C 1019.5 hPa WNW 9.7 km/h 17.7 km/h 79 % 0 mm 246 W/m2
11:58 14.8 °C 11.2 °C 1019.5 hPa WNW 9.7 km/h 17.7 km/h 79 % 0 mm 227 W/m2
12:03 14.9 °C 11.3 °C 1019.5 hPa WNW 9.7 km/h 17.7 km/h 79 % 0 mm 213 W/m2
12:08 14.9 °C 11.1 °C 1019.5 hPa WNW 11.3 km/h 20.9 km/h 78 % 0 mm 202 W/m2
12:11 14.9 °C 11.1 °C 1019.5 hPa WNW 11.3 km/h 20.9 km/h 78 % 0 mm 216 W/m2
12:16 14.9 °C 11.1 °C 1019.5 hPa WNW 11.3 km/h 20.9 km/h 78 % 0 mm 186 W/m2
12:21 14.9 °C 11.1 °C 1019.5 hPa NW 9.7 km/h 14.5 km/h 78 % 0 mm 200 W/m2
12:26 14.9 °C 11.1 °C 1019.5 hPa NW 8 km/h 16.1 km/h 78 % 0 mm 202 W/m2
12:31 15.1 °C 11.3 °C 1019.5 hPa NW 9.7 km/h 16.1 km/h 78 % 0 mm 211 W/m2
12:36 15.2 °C 11.2 °C 1019.5 hPa NW 8 km/h 16.1 km/h 77 % 0 mm 225 W/m2
12:41 15.3 °C 11.5 °C 1019.5 hPa WNW 8 km/h 14.5 km/h 78 % 0 mm 218 W/m2
12:46 15.4 °C 11.4 °C 1019.5 hPa WNW 8 km/h 14.5 km/h 77 % 0 mm 236 W/m2
12:51 15.4 °C 11.2 °C 1019.5 hPa WNW 9.7 km/h 20.9 km/h 76 % 0 mm 346 W/m2
12:56 15.6 °C 11.4 °C 1019.5 hPa NW 9.7 km/h 20.9 km/h 76 % 0 mm 200 W/m2
13:01 15.6 °C 11 °C 1019.5 hPa NW 9.7 km/h 20.9 km/h 74 % 0 mm 148 W/m2
13:06 15.5 °C 10.9 °C 1019.5 hPa NW 8 km/h 16.1 km/h 74 % 0 mm 134 W/m2
13:11 15.4 °C 10.6 °C 1019.5 hPa WNW 8 km/h 17.7 km/h 73 % 0 mm 123 W/m2
13:16 15.3 °C 10.7 °C 1019.5 hPa WNW 9.7 km/h 17.7 km/h 74 % 0 mm 135 W/m2
13:21 15.2 °C 10.8 °C 1019.2 hPa WNW 9.7 km/h 17.7 km/h 75 % 0 mm 144 W/m2
13:26 15.2 °C 10.8 °C 1019.5 hPa WNW 8 km/h 14.5 km/h 75 % 0 mm 153 W/m2
13:31 15.2 °C 10.8 °C 1019.5 hPa WNW 9.7 km/h 16.1 km/h 75 % 0 mm 169 W/m2
13:36 15.3 °C 11.1 °C 1019.5 hPa WNW 11.3 km/h 17.7 km/h 76 % 0 mm 649 W/m2
13:41 15.7 °C 11.3 °C 1019.2 hPa WNW 11.3 km/h 19.3 km/h 75 % 0 mm 710 W/m2
13:46 16.3 °C 11.2 °C 1019.2 hPa West 12.9 km/h 22.5 km/h 72 % 0 mm 707 W/m2
13:51 16.6 °C 11.3 °C 1019.2 hPa West 12.9 km/h 22.5 km/h 71 % 0 mm 130 W/m2
13:56 16.5 °C 10.8 °C 1019.5 hPa WNW 12.9 km/h 19.3 km/h 69 % 0 mm 63 W/m2
14:01 16.3 °C 10.6 °C 1019.5 hPa NW 12.9 km/h 19.3 km/h 69 % 0 mm 62 W/m2
14:07 16 °C 10.3 °C 1019.5 hPa NW 11.3 km/h 19.3 km/h 69 % 0 mm 69 W/m2
14:12 15.8 °C 10.3 °C 1019.5 hPa NW 9.7 km/h 19.3 km/h 70 % 0 mm 72 W/m2
14:17 15.6 °C 10.3 °C 1019.5 hPa NW 8 km/h 16.1 km/h 71 % 0 mm 91 W/m2
14:22 15.4 °C 10.2 °C 1019.5 hPa NW 9.7 km/h 16.1 km/h 71 % 0 mm 109 W/m2
14:27 15.4 °C 10.4 °C 1019.5 hPa NW 8 km/h 16.1 km/h 72 % 0 mm 144 W/m2
14:32 15.4 °C 10.6 °C 1019.2 hPa NW 4.8 km/h 11.3 km/h 73 % 0 mm 151 W/m2
14:37 15.4 °C 10.4 °C 1019.5 hPa NW 6.4 km/h 12.9 km/h 72 % 0 mm 174 W/m2
14:42 15.4 °C 10.4 °C 1019.2 hPa NW 6.4 km/h 12.9 km/h 72 % 0 mm 381 W/m2
14:47 15.7 °C 10.7 °C 1019.2 hPa NW 3.2 km/h 11.3 km/h 72 % 0 mm 638 W/m2
14:52 16 °C 10.7 °C 1019.2 hPa WNW 3.2 km/h 12.9 km/h 71 % 0 mm 279 W/m2
14:57 16.4 °C 10.7 °C 1019.2 hPa WNW 6.4 km/h 14.5 km/h 69 % 0 mm 547 W/m2
15:02 16.8 °C 10.8 °C 1019.2 hPa WNW 11.3 km/h 19.3 km/h 68 % 0 mm 464 W/m2
15:07 17.1 °C 10.9 °C 1019.2 hPa NW 11.3 km/h 19.3 km/h 67 % 0 mm 432 W/m2
15:12 17.3 °C 10.7 °C 1019.2 hPa WNW 9.7 km/h 19.3 km/h 65 % 0 mm 422 W/m2
15:17 17.4 °C 10.7 °C 1018.8 hPa WNW 9.7 km/h 19.3 km/h 65 % 0 mm 418 W/m2
15:22 17.6 °C 10.9 °C 1018.8 hPa WNW 9.7 km/h 16.1 km/h 65 % 0 mm 413 W/m2
15:27 17.6 °C 10.7 °C 1018.8 hPa WNW 11.3 km/h 17.7 km/h 64 % 0 mm 397 W/m2
15:32 17.6 °C 10.7 °C 1019.2 hPa WNW 11.3 km/h 20.9 km/h 64 % 0 mm 438 W/m2
15:37 17.7 °C 11.1 °C 1019.2 hPa NW 9.7 km/h 20.9 km/h 65 % 0 mm 461 W/m2
15:42 17.8 °C 10.7 °C 1019.2 hPa NW 9.7 km/h 16.1 km/h 63 % 0 mm 125 W/m2
15:47 17.6 °C 10.4 °C 1019.2 hPa WNW 12.9 km/h 24.1 km/h 63 % 0 mm 97 W/m2
15:52 17.3 °C 10.4 °C 1019.2 hPa WNW 12.9 km/h 24.1 km/h 64 % 0 mm 179 W/m2
15:57 17.2 °C 10.6 °C 1019.2 hPa WNW 11.3 km/h 20.9 km/h 65 % 0 mm 125 W/m2
16:02 17 °C 10.6 °C 1019.2 hPa WNW 11.3 km/h 20.9 km/h 66 % 0 mm 97 W/m2
16:07 16.8 °C 10.4 °C 1019.2 hPa WNW 11.3 km/h 20.9 km/h 66 % 0 mm 95 W/m2
16:17 16.6 °C 10.4 °C 1018.8 hPa WNW 9.7 km/h 19.3 km/h 67 % 0 mm 102 W/m2
16:22 16.5 °C 10.6 °C 1018.8 hPa WNW 8 km/h 16.1 km/h 68 % 0 mm 269 W/m2
16:27 16.5 °C 10.6 °C 1018.8 hPa WNW 9.7 km/h 17.7 km/h 68 % 0 mm 149 W/m2
16:32 16.6 °C 10.7 °C 1019.2 hPa WNW 9.7 km/h 16.1 km/h 68 % 0 mm 167 W/m2
16:37 16.6 °C 10.7 °C 1018.8 hPa WNW 11.3 km/h 19.3 km/h 68 % 0 mm 169 W/m2
16:42 16.5 °C 10.3 °C 1018.8 hPa WNW 12.9 km/h 22.5 km/h 67 % 0 mm 93 W/m2
16:47 16.3 °C 10.2 °C 1019.2 hPa WNW 14.5 km/h 22.5 km/h 67 % 0 mm 91 W/m2
16:52 16.2 °C 10.3 °C 1019.2 hPa WNW 14.5 km/h 24.1 km/h 68 % 0 mm 90 W/m2
16:57 16 °C 10.3 °C 1019.2 hPa WNW 12.9 km/h 24.1 km/h 69 % 0 mm 86 W/m2
17:02 15.8 °C 10.3 °C 1019.2 hPa WNW 12.9 km/h 20.9 km/h 70 % 0 mm 81 W/m2
17:07 15.7 °C 10.4 °C 1019.2 hPa WNW 11.3 km/h 20.9 km/h 71 % 0 mm 160 W/m2
17:12 15.7 °C 10.4 °C 1018.8 hPa WNW 9.7 km/h 17.7 km/h 71 % 0 mm 69 W/m2
17:17 15.6 °C 10.3 °C 1019.2 hPa WNW 9.7 km/h 17.7 km/h 71 % 0 mm 74 W/m2
17:22 15.6 °C 10.6 °C 1019.2 hPa WNW 9.7 km/h 17.7 km/h 72 % 0 mm 81 W/m2
17:28 15.6 °C 10.6 °C 1019.2 hPa WNW 8 km/h 16.1 km/h 72 % 0 mm 93 W/m2
17:33 15.6 °C 10.6 °C 1019.2 hPa WNW 9.7 km/h 19.3 km/h 72 % 0 mm 81 W/m2
17:38 15.5 °C 10.4 °C 1019.2 hPa WNW 11.3 km/h 19.3 km/h 72 % 0 mm 60 W/m2
17:43 15.4 °C 10.4 °C 1019.2 hPa WNW 9.7 km/h 17.7 km/h 72 % 0 mm 49 W/m2
17:48 15.4 °C 10.6 °C 1019.2 hPa WNW 8 km/h 14.5 km/h 73 % 0 mm 42 W/m2
17:53 15.3 °C 10.5 °C 1019.2 hPa WNW 6.4 km/h 14.5 km/h 73 % 0 mm 32 W/m2
17:58 15.2 °C 10.6 °C 1019.5 hPa WNW 4.8 km/h 14.5 km/h 74 % 0 mm 23 W/m2
18:03 15.1 °C 10.7 °C 1019.5 hPa WNW 3.2 km/h 9.7 km/h 75 % 0 mm 21 W/m2
18:08 15 °C 10.6 °C 1019.5 hPa WNW 3.2 km/h 8 km/h 75 % 0 mm 19 W/m2
18:13 14.9 °C 10.7 °C 1019.5 hPa WNW 1.6 km/h 8 km/h 76 % 0 mm 16 W/m2
18:18 14.7 °C 10.7 °C 1019.5 hPa WNW 1.6 km/h 8 km/h 77 % 0 mm 12 W/m2
18:23 14.6 °C 10.8 °C 1019.5 hPa WNW 1.6 km/h 8 km/h 78 % 0 mm 7 W/m2
18:28 14.4 °C 10.6 °C 1019.9 hPa WNW 3.2 km/h 9.7 km/h 78 % 0 mm 5 W/m2
18:33 14.3 °C 10.7 °C 1019.9 hPa WNW 8 km/h 14.5 km/h 79 % 0 mm 0 W/m2
18:38 14.1 °C 10.5 °C 1019.9 hPa WNW 8 km/h 14.5 km/h 79 % 0 mm 0 W/m2
18:43 13.9 °C 10.5 °C 1019.9 hPa WNW 6.4 km/h 11.3 km/h 80 % 0 mm 0 W/m2
18:48 13.8 °C 10.4 °C 1019.9 hPa WNW 6.4 km/h 11.3 km/h 80 % 0 mm 0 W/m2
18:49 13.8 °C 10.4 °C 1019.9 hPa WNW 6.4 km/h 11.3 km/h 80 % 0 mm 0 W/m2
18:54 13.6 °C 10.4 °C 1019.9 hPa WNW 4.8 km/h 9.7 km/h 81 % 0 mm 0 W/m2
18:59 13.4 °C 10.2 °C 1019.9 hPa WNW 3.2 km/h 8 km/h 81 % 0 mm 0 W/m2
19:04 13.3 °C 10.3 °C 1019.9 hPa WNW 3.2 km/h 8 km/h 82 % 0 mm 0 W/m2
19:09 13.1 °C 10.1 °C 1019.9 hPa WNW 3.2 km/h 6.4 km/h 82 % 0 mm 0 W/m2
19:19 12.8 °C 10 °C 1020.2 hPa WNW 4.8 km/h 8 km/h 83 % 0 mm 0 W/m2
19:24 12.6 °C 9.9 °C 1020.2 hPa WNW 4.8 km/h 9.7 km/h 84 % 0 mm 0 W/m2
19:29 12.4 °C 9.8 °C 1020.2 hPa WNW 4.8 km/h 9.7 km/h 84 % 0 mm 0 W/m2
19:34 12.3 °C 9.8 °C 1020.2 hPa WNW 3.2 km/h 8 km/h 85 % 0 mm 0 W/m2
19:39 12.2 °C 9.8 °C 1020.2 hPa WNW 1.6 km/h 8 km/h 85 % 0 mm 0 W/m2
19:44 12 °C 9.7 °C 1020.2 hPa WNW 1.6 km/h 4.8 km/h 86 % 0 mm 0 W/m2
19:49 11.9 °C 9.4 °C 1020.2 hPa Calm     85 % 0 mm 0 W/m2
19:54 11.8 °C 9.6 °C 1020.2 hPa Calm   3.2 km/h 86 % 0 mm 0 W/m2
19:59 11.6 °C 9.3 °C 1020.2 hPa Calm   3.2 km/h 86 % 0 mm 0 W/m2
20:04 11.4 °C 9.2 °C 1020.2 hPa Calm   3.2 km/h 86 % 0 mm 0 W/m2
20:09 11.3 °C 9.1 °C 1020.2 hPa Calm   3.2 km/h 86 % 0 mm 0 W/m2
20:14 11.2 °C 9.1 °C 1020.2 hPa Calm   1.6 km/h 87 % 0 mm 0 W/m2
20:24 10.9 °C 8.8 °C 1020.2 hPa Calm     87 % 0 mm 0 W/m2
20:29 10.8 °C 8.7 °C 1020.2 hPa Calm     87 % 0 mm 0 W/m2
20:34 10.7 °C 8.8 °C 1020.2 hPa Calm     88 % 0 mm 0 W/m2
20:39 10.6 °C 8.7 °C 1019.9 hPa Calm     88 % 0 mm 0 W/m2
20:44 10.4 °C 8.5 °C 1020.2 hPa Calm   1.6 km/h 88 % 0 mm 0 W/m2
20:49 10.3 °C 8.6 °C 1020.2 hPa Calm   1.6 km/h 89 % 0 mm 0 W/m2
20:54 10.2 °C 8.4 °C 1020.2 hPa Calm   1.6 km/h 89 % 0 mm 0 W/m2
20:55 10.2 °C 8.4 °C 1020.2 hPa Calm   1.6 km/h 89 % 0 mm 0 W/m2
21:00 10.1 °C 8.4 °C 1020.2 hPa Calm   1.6 km/h 89 % 0 mm 0 W/m2
21:05 9.9 °C 8.3 °C 1020.2 hPa Calm     90 % 0 mm 0 W/m2
21:06 9.9 °C 8.3 °C 1020.2 hPa Calm     90 % 0 mm 0 W/m2
21:11 9.8 °C 8.2 °C 1020.2 hPa Calm     90 % 0 mm 0 W/m2
21:16 9.8 °C 8.2 °C 1020.2 hPa Calm   1.6 km/h 90 % 0 mm 0 W/m2
21:21 9.7 °C 8.3 °C 1020.2 hPa Calm   1.6 km/h 91 % 0 mm 0 W/m2
21:31 9.6 °C 8.2 °C 1020.2 hPa Calm   1.6 km/h 91 % 0 mm 0 W/m2
21:36 9.6 °C 8.2 °C 1019.9 hPa Calm     91 % 0 mm 0 W/m2
21:41 9.5 °C 8.1 °C 1019.9 hPa Calm   1.6 km/h 91 % 0 mm 0 W/m2
21:46 9.6 °C 8.4 °C 1019.9 hPa Calm   1.6 km/h 92 % 0 mm 0 W/m2
21:51 9.6 °C 8.4 °C 1020.2 hPa Calm     92 % 0 mm 0 W/m2
21:56 9.6 °C 8.4 °C 1019.9 hPa Calm     92 % 0 mm 0 W/m2
22:01 9.6 °C 8.4 °C 1019.9 hPa Calm     92 % 0 mm 0 W/m2
22:06 9.6 °C 8.5 °C 1019.9 hPa Calm     93 % 0 mm 0 W/m2
22:21 9.5 °C 8.4 °C 1019.9 hPa Calm     93 % 0 mm 0 W/m2
22:26 9.5 °C 8.4 °C 1019.9 hPa Calm     93 % 0 mm 0 W/m2
22:32 9.5 °C 8.4 °C 1019.9 hPa Calm     93 % 0 mm 0 W/m2
22:37 9.4 °C 8.3 °C 1019.9 hPa Calm     93 % 0 mm 0 W/m2
22:42 9.4 °C 8.3 °C 1019.9 hPa Calm     93 % 0 mm 0 W/m2
22:47 9.3 °C 8.2 °C 1019.9 hPa Calm     93 % 0 mm 0 W/m2
22:52 9.3 °C 8.2 °C 1019.9 hPa Calm     93 % 0 mm 0 W/m2
22:57 9.2 °C 8.1 °C 1019.9 hPa Calm     93 % 0 mm 0 W/m2
23:02 9.3 °C 8.2 °C 1019.9 hPa Calm   3.2 km/h 93 % 0 mm 0 W/m2
23:07 9.4 °C 8.5 °C 1019.9 hPa WNW 3.2 km/h 11.3 km/h 94 % 0 mm 0 W/m2
23:12 9.7 °C 8.8 °C 1019.9 hPa WNW 3.2 km/h 11.3 km/h 94 % 0 mm 0 W/m2
23:17 9.8 °C 8.9 °C 1019.9 hPa Calm   6.4 km/h 94 % 0 mm 0 W/m2
23:22 9.8 °C 8.9 °C 1019.5 hPa Calm     94 % 0 mm 0 W/m2
23:27 9.8 °C 8.9 °C 1019.9 hPa Calm     94 % 0 mm 0 W/m2
23:32 9.8 °C 8.9 °C 1019.5 hPa WNW 3.2 km/h 8 km/h 94 % 0 mm 0 W/m2
23:37 9.9 °C 9 °C 1019.5 hPa WNW 6.4 km/h 9.7 km/h 94 % 0 mm 0 W/m2
23:42 10.1 °C 9.3 °C 1019.5 hPa WNW 4.8 km/h 9.7 km/h 95 % 0 mm 0 W/m2
23:47 10.2 °C 9.3 °C 1019.5 hPa NW 1.6 km/h 8 km/h 94 % 0 mm 0 W/m2
23:52 10.2 °C 9.3 °C 1019.5 hPa Calm   1.6 km/h 94 % 0 mm 0 W/m2
23:57 10.1 °C 9.2 °C 1019.5 hPa Calm   6.4 km/h 94 % 0 mm 0 W/m2
Delerius-Weather
Compliments of Weather Underground - 2.25 mb

Data updates at regular intervals.